sensor_id;sensor_type;location;lat;lon;timestamp;temperature;humidity
1137;DHT22;557;48.466;7.950;2022-08-19T00:02:16;19.90;99.90
1137;DHT22;557;48.466;7.950;2022-08-19T00:05:03;19.90;99.90
1137;DHT22;557;48.466;7.950;2022-08-19T00:07:49;19.90;99.90
1137;DHT22;557;48.466;7.950;2022-08-19T00:10:35;19.90;99.90
1137;DHT22;557;48.466;7.950;2022-08-19T00:13:22;19.90;99.90
1137;DHT22;557;48.466;7.950;2022-08-19T00:16:08;19.80;99.90
1137;DHT22;557;48.466;7.950;2022-08-19T00:18:54;19.80;99.90
1137;DHT22;557;48.466;7.950;2022-08-19T00:21:40;19.80;99.90
1137;DHT22;557;48.466;7.950;2022-08-19T00:24:25;19.80;99.90
1137;DHT22;557;48.466;7.950;2022-08-19T00:27:13;19.80;99.90
1137;DHT22;557;48.466;7.950;2022-08-19T00:30:00;19.80;99.90
1137;DHT22;557;48.466;7.950;2022-08-19T00:32:47;19.80;99.90
1137;DHT22;557;48.466;7.950;2022-08-19T00:35:33;19.80;99.90
1137;DHT22;557;48.466;7.950;2022-08-19T00:38:20;19.70;99.90
1137;DHT22;557;48.466;7.950;2022-08-19T00:41:07;19.70;99.90
1137;DHT22;557;48.466;7.950;2022-08-19T00:44:00;19.80;99.90
1137;DHT22;557;48.466;7.950;2022-08-19T00:46:50;19.80;99.90
1137;DHT22;557;48.466;7.950;2022-08-19T00:49:39;19.80;99.90
1137;DHT22;557;48.466;7.950;2022-08-19T00:52:31;19.80;99.90
1137;DHT22;557;48.466;7.950;2022-08-19T00:55:19;19.80;99.90
1137;DHT22;557;48.466;7.950;2022-08-19T00:58:08;19.90;99.90
1137;DHT22;557;48.466;7.950;2022-08-19T01:00:55;19.90;99.90
1137;DHT22;557;48.466;7.950;2022-08-19T01:03:42;19.90;99.90
1137;DHT22;557;48.466;7.950;2022-08-19T01:06:28;19.90;99.90
1137;DHT22;557;48.466;7.950;2022-08-19T01:09:16;19.90;99.90
1137;DHT22;557;48.466;7.950;2022-08-19T01:12:02;19.90;99.90
1137;DHT22;557;48.466;7.950;2022-08-19T01:14:52;19.80;99.90
1137;DHT22;557;48.466;7.950;2022-08-19T01:17:39;19.70;99.90
1137;DHT22;557;48.466;7.950;2022-08-19T01:20:27;19.70;99.90
1137;DHT22;557;48.466;7.950;2022-08-19T01:23:16;19.70;99.90
1137;DHT22;557;48.466;7.950;2022-08-19T01:26:02;19.70;99.90
1137;DHT22;557;48.466;7.950;2022-08-19T01:28:50;19.70;99.90
1137;DHT22;557;48.466;7.950;2022-08-19T01:31:37;19.70;99.90
1137;DHT22;557;48.466;7.950;2022-08-19T01:34:23;19.70;99.90
1137;DHT22;557;48.466;7.950;2022-08-19T01:37:11;19.80;99.90
1137;DHT22;557;48.466;7.950;2022-08-19T01:39:58;19.80;99.90
1137;DHT22;557;48.466;7.950;2022-08-19T01:42:44;19.70;99.90
1137;DHT22;557;48.466;7.950;2022-08-19T01:45:31;19.70;99.90
1137;DHT22;557;48.466;7.950;2022-08-19T01:48:17;19.70;99.90
1137;DHT22;557;48.466;7.950;2022-08-19T01:51:10;19.80;99.90
1137;DHT22;557;48.466;7.950;2022-08-19T01:53:56;19.70;99.90
1137;DHT22;557;48.466;7.950;2022-08-19T01:56:43;19.70;99.90
1137;DHT22;557;48.466;7.950;2022-08-19T01:59:30;19.70;99.90
1137;DHT22;557;48.466;7.950;2022-08-19T02:02:17;19.60;99.90
1137;DHT22;557;48.466;7.950;2022-08-19T02:05:03;19.60;99.90
1137;DHT22;557;48.466;7.950;2022-08-19T02:07:49;19.60;99.90
1137;DHT22;557;48.466;7.950;2022-08-19T02:10:39;19.50;99.90
1137;DHT22;557;48.466;7.950;2022-08-19T02:13:26;19.60;99.90
1137;DHT22;557;48.466;7.950;2022-08-19T02:16:12;19.60;99.90
1137;DHT22;557;48.466;7.950;2022-08-19T02:18:58;19.50;99.90
1137;DHT22;557;48.466;7.950;2022-08-19T02:21:45;19.50;99.90
1137;DHT22;557;48.466;7.950;2022-08-19T02:24:30;19.50;99.90
1137;DHT22;557;48.466;7.950;2022-08-19T02:27:16;19.50;99.90
1137;DHT22;557;48.466;7.950;2022-08-19T02:30:04;19.50;99.90
1137;DHT22;557;48.466;7.950;2022-08-19T02:32:51;19.50;99.90
1137;DHT22;557;48.466;7.950;2022-08-19T02:39:36;19.50;99.90
1137;DHT22;557;48.466;7.950;2022-08-19T02:42:22;19.50;99.90
1137;DHT22;557;48.466;7.950;2022-08-19T02:45:09;19.50;99.90
1137;DHT22;557;48.466;7.950;2022-08-19T02:47:55;19.50;99.90
1137;DHT22;557;48.466;7.950;2022-08-19T02:50:41;19.50;99.90
1137;DHT22;557;48.466;7.950;2022-08-19T02:53:28;19.50;99.90
1137;DHT22;557;48.466;7.950;2022-08-19T02:56:14;19.50;99.90
1137;DHT22;557;48.466;7.950;2022-08-19T02:59:00;19.40;99.90
1137;DHT22;557;48.466;7.950;2022-08-19T03:01:47;19.50;99.90
1137;DHT22;557;48.466;7.950;2022-08-19T03:04:32;19.50;99.90
1137;DHT22;557;48.466;7.950;2022-08-19T03:07:19;19.40;99.90
1137;DHT22;557;48.466;7.950;2022-08-19T03:10:05;19.40;99.90
1137;DHT22;557;48.466;7.950;2022-08-19T03:12:51;19.40;99.90
1137;DHT22;557;48.466;7.950;2022-08-19T03:15:40;19.50;99.90
1137;DHT22;557;48.466;7.950;2022-08-19T03:18:27;19.50;99.90
1137;DHT22;557;48.466;7.950;2022-08-19T03:21:15;19.50;99.90
1137;DHT22;557;48.466;7.950;2022-08-19T03:24:04;19.50;99.90
1137;DHT22;557;48.466;7.950;2022-08-19T03:26:54;19.50;99.90
1137;DHT22;557;48.466;7.950;2022-08-19T03:29:41;19.50;99.90
1137;DHT22;557;48.466;7.950;2022-08-19T03:32:39;19.50;99.90
1137;DHT22;557;48.466;7.950;2022-08-19T03:35:27;19.50;99.90
1137;DHT22;557;48.466;7.950;2022-08-19T03:38:12;19.50;99.90
1137;DHT22;557;48.466;7.950;2022-08-19T03:41:02;19.50;99.90
1137;DHT22;557;48.466;7.950;2022-08-19T03:43:51;19.50;99.90
1137;DHT22;557;48.466;7.950;2022-08-19T03:46:37;19.50;99.90
1137;DHT22;557;48.466;7.950;2022-08-19T03:49:25;19.50;99.90
1137;DHT22;557;48.466;7.950;2022-08-19T03:52:13;19.50;99.90
1137;DHT22;557;48.466;7.950;2022-08-19T03:54:59;19.50;99.90
1137;DHT22;557;48.466;7.950;2022-08-19T03:57:45;19.50;99.90
1137;DHT22;557;48.466;7.950;2022-08-19T04:00:32;19.50;99.90
1137;DHT22;557;48.466;7.950;2022-08-19T04:03:18;19.50;99.90
1137;DHT22;557;48.466;7.950;2022-08-19T04:06:10;19.50;99.90
1137;DHT22;557;48.466;7.950;2022-08-19T04:08:59;19.50;99.90
1137;DHT22;557;48.466;7.950;2022-08-19T04:11:48;19.50;99.90
1137;DHT22;557;48.466;7.950;2022-08-19T04:14:34;19.50;99.90
1137;DHT22;557;48.466;7.950;2022-08-19T04:17:19;19.50;99.90
1137;DHT22;557;48.466;7.950;2022-08-19T04:20:07;19.50;99.90
1137;DHT22;557;48.466;7.950;2022-08-19T04:22:53;19.50;99.90
1137;DHT22;557;48.466;7.950;2022-08-19T04:25:42;19.40;99.90
1137;DHT22;557;48.466;7.950;2022-08-19T04:28:28;19.50;99.90
1137;DHT22;557;48.466;7.950;2022-08-19T04:31:15;19.50;99.90
1137;DHT22;557;48.466;7.950;2022-08-19T04:34:03;19.40;99.90
1137;DHT22;557;48.466;7.950;2022-08-19T04:36:50;19.40;99.90
1137;DHT22;557;48.466;7.950;2022-08-19T04:39:37;19.40;99.90
1137;DHT22;557;48.466;7.950;2022-08-19T04:42:42;19.40;99.90
1137;DHT22;557;48.466;7.950;2022-08-19T04:45:28;19.40;99.90
1137;DHT22;557;48.466;7.950;2022-08-19T04:48:14;19.40;99.90
1137;DHT22;557;48.466;7.950;2022-08-19T04:51:00;19.40;99.90
1137;DHT22;557;48.466;7.950;2022-08-19T04:53:50;19.40;99.90
1137;DHT22;557;48.466;7.950;2022-08-19T04:56:36;19.50;99.90
1137;DHT22;557;48.466;7.950;2022-08-19T04:59:24;19.40;99.90
1137;DHT22;557;48.466;7.950;2022-08-19T05:02:09;19.40;99.90
1137;DHT22;557;48.466;7.950;2022-08-19T05:04:57;19.40;99.90
1137;DHT22;557;48.466;7.950;2022-08-19T05:07:44;19.50;99.90
1137;DHT22;557;48.466;7.950;2022-08-19T05:10:30;19.40;99.90
1137;DHT22;557;48.466;7.950;2022-08-19T05:13:17;19.40;99.90
1137;DHT22;557;48.466;7.950;2022-08-19T05:16:06;19.50;99.90
1137;DHT22;557;48.466;7.950;2022-08-19T05:18:52;19.50;99.90
1137;DHT22;557;48.466;7.950;2022-08-19T05:21:55;19.40;99.90
1137;DHT22;557;48.466;7.950;2022-08-19T05:24:59;19.50;99.90
1137;DHT22;557;48.466;7.950;2022-08-19T05:27:44;19.50;99.90
1137;DHT22;557;48.466;7.950;2022-08-19T05:30:30;19.50;99.90
1137;DHT22;557;48.466;7.950;2022-08-19T05:33:19;19.60;99.90
1137;DHT22;557;48.466;7.950;2022-08-19T05:36:06;19.50;99.90
1137;DHT22;557;48.466;7.950;2022-08-19T05:38:52;19.60;99.90
1137;DHT22;557;48.466;7.950;2022-08-19T05:41:41;19.60;99.90
1137;DHT22;557;48.466;7.950;2022-08-19T05:44:29;19.60;99.90
1137;DHT22;557;48.466;7.950;2022-08-19T05:47:16;19.60;99.90
1137;DHT22;557;48.466;7.950;2022-08-19T05:50:05;19.60;99.90
1137;DHT22;557;48.466;7.950;2022-08-19T05:52:51;19.60;99.90
1137;DHT22;557;48.466;7.950;2022-08-19T05:55:37;19.60;99.90
1137;DHT22;557;48.466;7.950;2022-08-19T05:58:23;19.60;99.90
1137;DHT22;557;48.466;7.950;2022-08-19T06:01:13;19.50;99.90
1137;DHT22;557;48.466;7.950;2022-08-19T06:03:59;19.50;99.90
1137;DHT22;557;48.466;7.950;2022-08-19T06:06:46;19.50;99.90
1137;DHT22;557;48.466;7.950;2022-08-19T06:09:32;19.50;99.90
1137;DHT22;557;48.466;7.950;2022-08-19T06:12:18;19.50;99.90
1137;DHT22;557;48.466;7.950;2022-08-19T06:15:07;19.60;99.90
1137;DHT22;557;48.466;7.950;2022-08-19T06:17:53;19.60;99.90
1137;DHT22;557;48.466;7.950;2022-08-19T06:20:39;19.60;99.90
1137;DHT22;557;48.466;7.950;2022-08-19T06:23:26;19.70;99.90
1137;DHT22;557;48.466;7.950;2022-08-19T06:26:12;19.70;99.90
1137;DHT22;557;48.466;7.950;2022-08-19T06:28:58;19.70;99.90
1137;DHT22;557;48.466;7.950;2022-08-19T06:31:47;19.70;99.90
1137;DHT22;557;48.466;7.950;2022-08-19T06:34:34;19.70;99.90
1137;DHT22;557;48.466;7.950;2022-08-19T06:37:20;19.70;99.90
1137;DHT22;557;48.466;7.950;2022-08-19T06:40:09;19.70;99.90
1137;DHT22;557;48.466;7.950;2022-08-19T06:42:56;19.70;99.90
1137;DHT22;557;48.466;7.950;2022-08-19T06:45:43;19.70;99.90
1137;DHT22;557;48.466;7.950;2022-08-19T06:48:29;19.70;99.90
1137;DHT22;557;48.466;7.950;2022-08-19T06:51:17;19.80;99.90
1137;DHT22;557;48.466;7.950;2022-08-19T06:54:04;19.80;99.90
1137;DHT22;557;48.466;7.950;2022-08-19T06:56:51;19.80;99.90
1137;DHT22;557;48.466;7.950;2022-08-19T06:59:36;19.90;99.90
1137;DHT22;557;48.466;7.950;2022-08-19T07:02:22;19.90;99.90
1137;DHT22;557;48.466;7.950;2022-08-19T07:05:10;19.90;99.90
1137;DHT22;557;48.466;7.950;2022-08-19T07:07:56;20.00;99.90
1137;DHT22;557;48.466;7.950;2022-08-19T07:10:43;20.00;99.90
1137;DHT22;557;48.466;7.950;2022-08-19T07:13:31;20.00;99.90
1137;DHT22;557;48.466;7.950;2022-08-19T07:16:19;20.10;99.90
1137;DHT22;557;48.466;7.950;2022-08-19T07:19:04;20.10;99.90
1137;DHT22;557;48.466;7.950;2022-08-19T07:21:50;20.10;99.90
1137;DHT22;557;48.466;7.950;2022-08-19T07:24:37;20.10;99.90
1137;DHT22;557;48.466;7.950;2022-08-19T07:27:29;20.20;99.90
1137;DHT22;557;48.466;7.950;2022-08-19T07:30:16;20.20;99.90
1137;DHT22;557;48.466;7.950;2022-08-19T07:33:03;20.20;99.90
1137;DHT22;557;48.466;7.950;2022-08-19T07:35:49;20.30;99.90
1137;DHT22;557;48.466;7.950;2022-08-19T07:38:35;20.30;99.90
1137;DHT22;557;48.466;7.950;2022-08-19T07:41:23;20.40;99.90
1137;DHT22;557;48.466;7.950;2022-08-19T07:44:10;20.50;99.90
1137;DHT22;557;48.466;7.950;2022-08-19T07:46:58;20.60;99.90
1137;DHT22;557;48.466;7.950;2022-08-19T07:49:44;20.80;99.90
1137;DHT22;557;48.466;7.950;2022-08-19T07:52:30;20.80;99.90
1137;DHT22;557;48.466;7.950;2022-08-19T07:55:17;20.90;99.90
1137;DHT22;557;48.466;7.950;2022-08-19T07:58:03;21.10;99.90
1137;DHT22;557;48.466;7.950;2022-08-19T08:00:51;21.30;99.90
1137;DHT22;557;48.466;7.950;2022-08-19T08:03:37;21.40;99.90
1137;DHT22;557;48.466;7.950;2022-08-19T08:06:41;21.50;99.90
1137;DHT22;557;48.466;7.950;2022-08-19T08:09:45;21.50;99.90
1137;DHT22;557;48.466;7.950;2022-08-19T08:12:34;21.60;99.90
1137;DHT22;557;48.466;7.950;2022-08-19T08:15:20;21.60;99.90
1137;DHT22;557;48.466;7.950;2022-08-19T08:18:06;21.60;39.40
1137;DHT22;557;48.466;7.950;2022-08-19T08:20:53;21.60;80.00
1137;DHT22;557;48.466;7.950;2022-08-19T08:23:39;21.70;53.90
1137;DHT22;557;48.466;7.950;2022-08-19T08:26:25;21.80;94.20
1137;DHT22;557;48.466;7.950;2022-08-19T08:29:11;21.80;24.90
1137;DHT22;557;48.466;7.950;2022-08-19T08:31:57;21.90;22.30
1137;DHT22;557;48.466;7.950;2022-08-19T08:34:43;21.80;4.10
1137;DHT22;557;48.466;7.950;2022-08-19T08:37:30;21.80;22.10
1137;DHT22;557;48.466;7.950;2022-08-19T08:40:20;21.80;15.60
1137;DHT22;557;48.466;7.950;2022-08-19T08:43:09;21.80;4.60
1137;DHT22;557;48.466;7.950;2022-08-19T08:46:01;21.80;14.00
1137;DHT22;557;48.466;7.950;2022-08-19T08:48:51;21.80;33.20
1137;DHT22;557;48.466;7.950;2022-08-19T08:51:43;21.80;1.00
1137;DHT22;557;48.466;7.950;2022-08-19T08:54:35;21.80;1.00
1137;DHT22;557;48.466;7.950;2022-08-19T08:57:27;21.80;1.00
1137;DHT22;557;48.466;7.950;2022-08-19T09:00:17;21.90;1.00
1137;DHT22;557;48.466;7.950;2022-08-19T09:03:12;22.10;15.00
1137;DHT22;557;48.466;7.950;2022-08-19T09:06:03;22.30;1.00
1137;DHT22;557;48.466;7.950;2022-08-19T09:08:57;22.40;1.00
1137;DHT22;557;48.466;7.950;2022-08-19T09:11:55;22.50;1.00
1137;DHT22;557;48.466;7.950;2022-08-19T09:14:48;22.60;1.00
1137;DHT22;557;48.466;7.950;2022-08-19T09:17:35;22.80;99.90
1137;DHT22;557;48.466;7.950;2022-08-19T09:20:23;22.90;1.00
1137;DHT22;557;48.466;7.950;2022-08-19T09:23:09;22.90;1.00
1137;DHT22;557;48.466;7.950;2022-08-19T09:25:57;22.90;1.00
1137;DHT22;557;48.466;7.950;2022-08-19T09:28:45;22.90;1.00
1137;DHT22;557;48.466;7.950;2022-08-19T09:31:31;22.90;1.00
1137;DHT22;557;48.466;7.950;2022-08-19T09:34:17;22.90;1.00
1137;DHT22;557;48.466;7.950;2022-08-19T09:37:04;22.90;1.00
1137;DHT22;557;48.466;7.950;2022-08-19T09:39:50;23.00;99.90
1137;DHT22;557;48.466;7.950;2022-08-19T09:42:36;23.00;99.90
1137;DHT22;557;48.466;7.950;2022-08-19T09:45:23;22.90;99.90
1137;DHT22;557;48.466;7.950;2022-08-19T09:48:09;23.10;1.00
1137;DHT22;557;48.466;7.950;2022-08-19T09:50:55;23.30;99.90
1137;DHT22;557;48.466;7.950;2022-08-19T09:53:48;23.40;1.00
1137;DHT22;557;48.466;7.950;2022-08-19T09:56:35;23.60;99.90
1137;DHT22;557;48.466;7.950;2022-08-19T09:59:21;23.70;3.90
1137;DHT22;557;48.466;7.950;2022-08-19T10:02:08;23.70;69.40
1137;DHT22;557;48.466;7.950;2022-08-19T10:04:54;23.90;99.90
1137;DHT22;557;48.466;7.950;2022-08-19T10:07:57;23.70;99.90
1137;DHT22;557;48.466;7.950;2022-08-19T10:10:48;23.90;1.00
1137;DHT22;557;48.466;7.950;2022-08-19T10:13:34;24.30;1.00
1137;DHT22;557;48.466;7.950;2022-08-19T10:16:22;24.50;99.90
1137;DHT22;557;48.466;7.950;2022-08-19T10:19:11;24.60;1.00
1137;DHT22;557;48.466;7.950;2022-08-19T10:21:57;24.60;1.00
1137;DHT22;557;48.466;7.950;2022-08-19T10:24:42;24.40;76.10
1137;DHT22;557;48.466;7.950;2022-08-19T10:27:28;24.30;1.00
1137;DHT22;557;48.466;7.950;2022-08-19T10:30:15;24.40;99.90
1137;DHT22;557;48.466;7.950;2022-08-19T10:33:00;24.40;99.90
1137;DHT22;557;48.466;7.950;2022-08-19T10:35:47;24.50;99.90
1137;DHT22;557;48.466;7.950;2022-08-19T10:38:33;24.60;1.00
1137;DHT22;557;48.466;7.950;2022-08-19T10:41:20;24.60;1.00
1137;DHT22;557;48.466;7.950;2022-08-19T10:44:09;24.60;99.90
1137;DHT22;557;48.466;7.950;2022-08-19T10:46:55;24.40;99.90
1137;DHT22;557;48.466;7.950;2022-08-19T10:49:42;24.20;36.00
1137;DHT22;557;48.466;7.950;2022-08-19T10:52:49;24.20;99.90
1137;DHT22;557;48.466;7.950;2022-08-19T10:55:35;24.00;1.00
1137;DHT22;557;48.466;7.950;2022-08-19T10:58:39;23.90;99.90
1137;DHT22;557;48.466;7.950;2022-08-19T11:01:26;23.90;96.40
1137;DHT22;557;48.466;7.950;2022-08-19T11:04:14;23.90;99.90
1137;DHT22;557;48.466;7.950;2022-08-19T11:07:02;24.00;99.90
1137;DHT22;557;48.466;7.950;2022-08-19T11:09:50;24.00;99.90
1137;DHT22;557;48.466;7.950;2022-08-19T11:12:36;23.90;1.00
1137;DHT22;557;48.466;7.950;2022-08-19T11:15:23;23.90;13.80
1137;DHT22;557;48.466;7.950;2022-08-19T11:18:09;24.00;1.00
1137;DHT22;557;48.466;7.950;2022-08-19T11:20:54;24.00;94.80
1137;DHT22;557;48.466;7.950;2022-08-19T11:23:40;24.10;1.00
1137;DHT22;557;48.466;7.950;2022-08-19T11:26:30;24.30;1.00
1137;DHT22;557;48.466;7.950;2022-08-19T11:29:17;24.30;1.00
1137;DHT22;557;48.466;7.950;2022-08-19T11:32:05;24.30;99.90
1137;DHT22;557;48.466;7.950;2022-08-19T11:34:51;24.30;99.90
1137;DHT22;557;48.466;7.950;2022-08-19T11:37:47;24.30;1.00
1137;DHT22;557;48.466;7.950;2022-08-19T11:40:33;24.50;1.00
1137;DHT22;557;48.466;7.950;2022-08-19T11:43:20;24.60;99.90
1137;DHT22;557;48.466;7.950;2022-08-19T11:46:06;24.60;99.90
1137;DHT22;557;48.466;7.950;2022-08-19T11:48:52;24.70;1.00
1137;DHT22;557;48.466;7.950;2022-08-19T11:51:38;24.90;1.00
1137;DHT22;557;48.466;7.950;2022-08-19T11:54:26;25.00;1.00
1137;DHT22;557;48.466;7.950;2022-08-19T11:57:11;25.10;1.00
1137;DHT22;557;48.466;7.950;2022-08-19T12:00:00;25.10;99.90
1137;DHT22;557;48.466;7.950;2022-08-19T12:02:47;25.30;99.90
1137;DHT22;557;48.466;7.950;2022-08-19T12:05:39;25.50;99.90
1137;DHT22;557;48.466;7.950;2022-08-19T12:08:26;25.70;1.00
1137;DHT22;557;48.466;7.950;2022-08-19T12:11:12;25.60;1.00
1137;DHT22;557;48.466;7.950;2022-08-19T12:13:58;25.40;1.00
1137;DHT22;557;48.466;7.950;2022-08-19T12:16:46;25.50;99.90
1137;DHT22;557;48.466;7.950;2022-08-19T12:19:32;25.70;1.00
1137;DHT22;557;48.466;7.950;2022-08-19T12:22:18;25.90;1.00
1137;DHT22;557;48.466;7.950;2022-08-19T12:25:06;26.20;99.90
1137;DHT22;557;48.466;7.950;2022-08-19T12:27:52;26.30;99.90
1137;DHT22;557;48.466;7.950;2022-08-19T12:30:38;26.30;99.90
1137;DHT22;557;48.466;7.950;2022-08-19T12:33:25;26.40;99.90
1137;DHT22;557;48.466;7.950;2022-08-19T12:36:14;26.70;99.90
1137;DHT22;557;48.466;7.950;2022-08-19T12:39:00;27.00;99.90
1137;DHT22;557;48.466;7.950;2022-08-19T12:41:46;27.60;99.90
1137;DHT22;557;48.466;7.950;2022-08-19T12:44:32;28.30;99.90
1137;DHT22;557;48.466;7.950;2022-08-19T12:47:18;28.80;99.90
1137;DHT22;557;48.466;7.950;2022-08-19T12:50:07;28.50;99.90
1137;DHT22;557;48.466;7.950;2022-08-19T12:52:53;28.10;99.90
1137;DHT22;557;48.466;7.950;2022-08-19T12:55:38;28.50;99.90
1137;DHT22;557;48.466;7.950;2022-08-19T12:58:24;28.80;99.90
1137;DHT22;557;48.466;7.950;2022-08-19T13:01:15;28.60;99.90
1137;DHT22;557;48.466;7.950;2022-08-19T13:04:03;28.90;99.90
1137;DHT22;557;48.466;7.950;2022-08-19T13:06:50;28.80;99.90
1137;DHT22;557;48.466;7.950;2022-08-19T13:09:38;29.00;99.90
1137;DHT22;557;48.466;7.950;2022-08-19T13:12:25;29.10;99.90
1137;DHT22;557;48.466;7.950;2022-08-19T13:15:13;29.30;99.90
1137;DHT22;557;48.466;7.950;2022-08-19T13:17:59;29.30;99.90
1137;DHT22;557;48.466;7.950;2022-08-19T13:20:44;29.20;99.90
1137;DHT22;557;48.466;7.950;2022-08-19T13:23:32;28.30;99.90
1137;DHT22;557;48.466;7.950;2022-08-19T13:26:18;27.60;99.90
1137;DHT22;557;48.466;7.950;2022-08-19T13:29:04;26.90;99.90
1137;DHT22;557;48.466;7.950;2022-08-19T13:32:07;26.50;99.90
1137;DHT22;557;48.466;7.950;2022-08-19T13:35:11;26.20;99.90
1137;DHT22;557;48.466;7.950;2022-08-19T13:37:57;26.80;99.90
1137;DHT22;557;48.466;7.950;2022-08-19T13:40:44;27.90;99.90
1137;DHT22;557;48.466;7.950;2022-08-19T13:43:30;28.90;99.90
1137;DHT22;557;48.466;7.950;2022-08-19T13:46:16;29.60;99.90
1137;DHT22;557;48.466;7.950;2022-08-19T13:49:02;29.00;99.90
1137;DHT22;557;48.466;7.950;2022-08-19T13:51:48;27.90;99.90
1137;DHT22;557;48.466;7.950;2022-08-19T13:54:34;27.10;99.90
1137;DHT22;557;48.466;7.950;2022-08-19T13:57:21;26.50;99.90
1137;DHT22;557;48.466;7.950;2022-08-19T14:00:10;26.00;99.90
1137;DHT22;557;48.466;7.950;2022-08-19T14:02:57;25.80;99.90
1137;DHT22;557;48.466;7.950;2022-08-19T14:05:43;25.60;99.90
1137;DHT22;557;48.466;7.950;2022-08-19T14:08:30;25.40;99.90
1137;DHT22;557;48.466;7.950;2022-08-19T14:11:16;25.40;99.90
1137;DHT22;557;48.466;7.950;2022-08-19T14:14:04;25.20;1.00
1137;DHT22;557;48.466;7.950;2022-08-19T14:16:50;25.20;1.00
1137;DHT22;557;48.466;7.950;2022-08-19T14:19:36;25.20;1.00
1137;DHT22;557;48.466;7.950;2022-08-19T14:22:21;25.10;1.00
1137;DHT22;557;48.466;7.950;2022-08-19T14:25:10;25.10;1.00
1137;DHT22;557;48.466;7.950;2022-08-19T14:27:57;25.10;1.00
1137;DHT22;557;48.466;7.950;2022-08-19T14:30:44;25.00;1.00
1137;DHT22;557;48.466;7.950;2022-08-19T14:33:29;25.00;1.00
1137;DHT22;557;48.466;7.950;2022-08-19T14:36:25;25.10;1.00
1137;DHT22;557;48.466;7.950;2022-08-19T14:39:11;25.10;1.00
1137;DHT22;557;48.466;7.950;2022-08-19T14:41:56;25.00;1.00
1137;DHT22;557;48.466;7.950;2022-08-19T14:44:43;25.10;1.00
1137;DHT22;557;48.466;7.950;2022-08-19T14:47:30;25.10;1.00
1137;DHT22;557;48.466;7.950;2022-08-19T14:50:16;25.10;1.00
1137;DHT22;557;48.466;7.950;2022-08-19T14:53:04;25.10;1.00
1137;DHT22;557;48.466;7.950;2022-08-19T14:55:50;25.10;1.00
1137;DHT22;557;48.466;7.950;2022-08-19T14:58:36;25.20;1.00
1137;DHT22;557;48.466;7.950;2022-08-19T15:01:22;25.20;1.00
1137;DHT22;557;48.466;7.950;2022-08-19T15:04:09;25.20;1.00
1137;DHT22;557;48.466;7.950;2022-08-19T15:06:55;25.10;1.00
1137;DHT22;557;48.466;7.950;2022-08-19T15:09:41;25.10;1.00
1137;DHT22;557;48.466;7.950;2022-08-19T15:12:27;25.20;1.00
1137;DHT22;557;48.466;7.950;2022-08-19T15:15:14;25.20;1.00
1137;DHT22;557;48.466;7.950;2022-08-19T15:18:01;25.30;1.00
1137;DHT22;557;48.466;7.950;2022-08-19T15:20:50;25.30;1.00
1137;DHT22;557;48.466;7.950;2022-08-19T15:23:35;25.30;1.00
1137;DHT22;557;48.466;7.950;2022-08-19T15:26:21;25.30;1.00
1137;DHT22;557;48.466;7.950;2022-08-19T15:29:09;25.30;1.00
1137;DHT22;557;48.466;7.950;2022-08-19T15:32:00;25.30;1.00
1137;DHT22;557;48.466;7.950;2022-08-19T15:34:46;25.40;1.00
1137;DHT22;557;48.466;7.950;2022-08-19T15:37:35;25.40;1.00
1137;DHT22;557;48.466;7.950;2022-08-19T15:40:22;25.40;1.00
1137;DHT22;557;48.466;7.950;2022-08-19T15:43:09;26.00;99.90
1137;DHT22;557;48.466;7.950;2022-08-19T15:45:55;26.90;99.90
1137;DHT22;557;48.466;7.950;2022-08-19T15:48:41;27.60;99.90
1137;DHT22;557;48.466;7.950;2022-08-19T15:51:29;28.30;96.40
1137;DHT22;557;48.466;7.950;2022-08-19T15:54:18;28.90;85.60
1137;DHT22;557;48.466;7.950;2022-08-19T15:57:04;29.10;75.10
1137;DHT22;557;48.466;7.950;2022-08-19T16:00:08;29.70;69.40
1137;DHT22;557;48.466;7.950;2022-08-19T16:03:13;30.10;53.00
1137;DHT22;557;48.466;7.950;2022-08-19T16:06:16;29.30;43.90
1137;DHT22;557;48.466;7.950;2022-08-19T16:09:11;28.60;49.50
1137;DHT22;557;48.466;7.950;2022-08-19T16:12:00;28.60;53.60
1137;DHT22;557;48.466;7.950;2022-08-19T16:14:48;28.40;62.00
1137;DHT22;557;48.466;7.950;2022-08-19T16:17:34;28.10;73.50
1137;DHT22;557;48.466;7.950;2022-08-19T16:20:20;28.20;86.90
1137;DHT22;557;48.466;7.950;2022-08-19T16:23:06;27.70;89.50
1137;DHT22;557;48.466;7.950;2022-08-19T16:25:52;27.30;99.70
1137;DHT22;557;48.466;7.950;2022-08-19T16:28:40;27.10;99.90
1137;DHT22;557;48.466;7.950;2022-08-19T16:31:26;26.90;99.90
1137;DHT22;557;48.466;7.950;2022-08-19T16:34:12;26.70;99.90
1137;DHT22;557;48.466;7.950;2022-08-19T16:36:58;26.50;99.90
1137;DHT22;557;48.466;7.950;2022-08-19T16:39:44;26.40;99.90
1137;DHT22;557;48.466;7.950;2022-08-19T16:42:30;26.20;99.90
1137;DHT22;557;48.466;7.950;2022-08-19T16:45:18;26.10;99.90
1137;DHT22;557;48.466;7.950;2022-08-19T16:48:05;26.00;99.90
1137;DHT22;557;48.466;7.950;2022-08-19T16:50:51;25.90;99.90
1137;DHT22;557;48.466;7.950;2022-08-19T16:53:39;25.80;99.90
1137;DHT22;557;48.466;7.950;2022-08-19T16:56:26;25.70;99.90
1137;DHT22;557;48.466;7.950;2022-08-19T16:59:12;25.60;99.90
1137;DHT22;557;48.466;7.950;2022-08-19T17:02:00;25.70;99.90
1137;DHT22;557;48.466;7.950;2022-08-19T17:04:46;25.70;99.90
1137;DHT22;557;48.466;7.950;2022-08-19T17:07:33;25.60;1.00
1137;DHT22;557;48.466;7.950;2022-08-19T17:10:19;25.40;1.00
1137;DHT22;557;48.466;7.950;2022-08-19T17:13:05;25.30;99.90
1137;DHT22;557;48.466;7.950;2022-08-19T17:15:50;25.30;1.00
1137;DHT22;557;48.466;7.950;2022-08-19T17:18:39;25.30;1.00
1137;DHT22;557;48.466;7.950;2022-08-19T17:21:26;25.30;1.00
1137;DHT22;557;48.466;7.950;2022-08-19T17:24:12;25.40;1.00
1137;DHT22;557;48.466;7.950;2022-08-19T17:27:00;25.40;1.00
1137;DHT22;557;48.466;7.950;2022-08-19T17:29:46;25.30;1.00
1137;DHT22;557;48.466;7.950;2022-08-19T17:32:32;25.10;1.00
1137;DHT22;557;48.466;7.950;2022-08-19T17:35:19;25.00;1.00
1137;DHT22;557;48.466;7.950;2022-08-19T17:38:06;24.90;6.80
1137;DHT22;557;48.466;7.950;2022-08-19T17:40:52;24.70;27.50
1137;DHT22;557;48.466;7.950;2022-08-19T17:43:42;24.60;99.90
1137;DHT22;557;48.466;7.950;2022-08-19T17:46:28;24.60;99.90
1137;DHT22;557;48.466;7.950;2022-08-19T17:49:14;24.50;99.90
1137;DHT22;557;48.466;7.950;2022-08-19T17:52:02;24.40;1.00
1137;DHT22;557;48.466;7.950;2022-08-19T17:54:48;24.30;99.90
1137;DHT22;557;48.466;7.950;2022-08-19T17:57:34;24.20;99.90
1137;DHT22;557;48.466;7.950;2022-08-19T18:00:22;24.10;1.00
1137;DHT22;557;48.466;7.950;2022-08-19T18:03:08;24.10;1.00
1137;DHT22;557;48.466;7.950;2022-08-19T18:05:55;24.10;99.90
1137;DHT22;557;48.466;7.950;2022-08-19T18:08:43;24.00;1.00
1137;DHT22;557;48.466;7.950;2022-08-19T18:11:29;24.00;99.90
1137;DHT22;557;48.466;7.950;2022-08-19T18:14:15;23.80;1.00
1137;DHT22;557;48.466;7.950;2022-08-19T18:17:02;23.70;99.90
1137;DHT22;557;48.466;7.950;2022-08-19T18:19:49;23.60;99.90
1137;DHT22;557;48.466;7.950;2022-08-19T18:22:37;23.50;1.00
1137;DHT22;557;48.466;7.950;2022-08-19T18:25:26;23.40;99.90
1137;DHT22;557;48.466;7.950;2022-08-19T18:28:12;23.40;99.90
1137;DHT22;557;48.466;7.950;2022-08-19T18:30:59;23.40;1.00
1137;DHT22;557;48.466;7.950;2022-08-19T18:33:45;23.30;99.90
1137;DHT22;557;48.466;7.950;2022-08-19T18:36:35;23.20;99.90
1137;DHT22;557;48.466;7.950;2022-08-19T18:39:21;23.10;1.00
1137;DHT22;557;48.466;7.950;2022-08-19T18:42:26;23.10;1.00